メインページ
METAR-TAF:

METAR-TAF

空港 :

オデッサ, ウクライナ

オデッサ国際空港

緯度: 46-26N, 経度: 030-46E, 海抜: 42m

現時点の気象観測

当レポートは22分前の13:00(UTC)に作成
東/北東の風 10kt
気温 23°C
湿度 53%
気圧 1023 hPa
視程10km以上
1,500メートル以下は雲なし、積乱雲なし

METAR: UKOO 251300Z 06005MPS CAVOK 23/13 Q1023 R34/090060 NOSIG

時間: 16:22 (13:22 UTC)

予報

当レポートは2時間16分前の11:06(UTC)に作成
予報は25日の 12時(UTC)から 26日の 12時(UTC)まで有効
東/北東の風 12kt、最大23ktの突風を伴う
視程: 6000m
高度700ftの千切れ雲あり
高度1700ftの雲は散在している, 積乱雲.
確率 40% :
25日の 12時(UTC)から 25日の 18時(UTC)まで一時的に
変向風 33kt
視程: 1000m
激しい雷雨, 雨, 雹
25日の 18時(UTC)から 25日の 19時(UTC)まで徐々に
の風 16kt、最大31ktの突風を伴う
視程: 2100m

TAF: UKOO 251106Z 2512/2612 06006G12MPS 6000 BKN007 SCT017CB PROB40 TEMPO 2512/2518 VRB17MPS 1000 TSRAGR BECMG 2518/2519 08008G16MPS 2100 BR

4,000以上の空港の気象観測と天気予報(METAR報とTAF報)

利用可能な観測所は地図上に黄色い丸と赤い丸で示す。

丸の上にカーソルを重ねると観測所名を参照できる。

次にクリックすると気象観測と天気予報を参照できる。

マップの切り替え:黒色「×」印の緑ボタンをクリックして拡大、「-」印の緑ボタンをクリックして縮小、緑色の三角印をクリックして隣りの地図に切り替え


METAR-TAF: